KLFK/LFK METAR and TAF weather

Enter ICAO airport designator
Station Type Date Time Source
KLFK METAR 2021/08/05 04:53 UTC NOAA

KLFK 050453Z AUTO 06004KT 10SM CLR 24/21 A3005 RMK AO2 SLP171 T02440211


Station Type Date Time Source
KLFK Decoded METAR 2021/08/05 04:53 UTC NOAA

LUFKIN ANGELINA COUNTY AIRPORT , TX, United States (KLFK) 31-14N 94-45W 88M
Aug 05, 2021 - 12:53 AM EDT / 2021.08.05 0453 UTC
Wind: from the ENE (060 degrees) at 5 MPH (4 KT):0
Visibility: 10 mile(s):0
Sky conditions: clear
Temperature: 75.9 F (24.4 C)
Dew Point: 70.0 F (21.1 C)
Relative Humidity: 81%
Pressure (altimeter): 30.05 in. Hg (1017 hPa)
ob: KLFK 050453Z AUTO 06004KT 10SM CLR 24/21 A3005 RMK AO2 SLP171 T02440211
cycle: 5

Station Type Date Time Source
KLFK TAF 2021/08/04 18:42 UTC NOAA

TAF KLFK 041739Z 0418/0518 07007KT P6SM SCT040
FM050100 VRB03KT P6SM FEW250
FM051500 11005KT P6SM SCT030 SCT250

Example: see airport list